Bariri, Brazil
Current Conditions -  °F | °C
As of 11:00 PM on Saturday 20 Dec 2014 (Local Time) from SBBU Reporting Station
Clear Clear  
Wind Chill: 77°   Ceiling: Unl
Heat Index: 78°   Visibility: 6mi
Dew Point: 73°   Wind: 12mph
Humidity: 89%   Direction: 360°N
Pressure: 29.88"   Gusts: NA
Location:  22.07°S, 48.74°W
Report Text: SBBU 210100Z 36010KT CAVOK 25/23 Q1012
Loading
Personal Weather Stations






























Interactive Weather Map New forecast layout! Learn more

10-Day Weather Forecast

Advertisements
Track Severe Weather on mobile